Time;durP1;ratioP1;P1;durP2;ratioP2;P2;SDS_P1;SDS_P2;PMS_P1;PMS_P2;Temp;Humidity;BMP_temperature;BMP_pressure;BME280_temperature;BME280_humidity;BME280_pressure;Samples;Min_cycle;Max_cycle;Signal;HPM_P1;HPM_P2
2022/11/22 08:06:04;;;;;;;10.57;3.80;;;;;;;8.40;nan;97954.31;6104697;23;20202;-93
2022/11/22 08:08:43;;;;;;;6.30;3.00;;;;;;;8.43;nan;97951.44;6018313;23;20220;-93
2022/11/22 08:11:09;;;;;;;5.30;3.40;;;;;;;8.45;nan;97946.91;6015065;23;20162;-92
2022/11/22 08:13:52;;;;;;;6.50;4.13;;;;;;;8.49;nan;97952.72;6016423;23;20176;-92
2022/11/22 08:16:32;;;;;;;6.47;2.88;;;;;;;8.52;nan;97947.25;6017086;23;20251;-92
2022/11/22 08:19:34;;;;;;;4.93;3.83;;;;;;;8.55;nan;97949.59;6016447;23;20757;-93
2022/11/22 08:22:12;;;;;;;;;;;;;;;;;;;;;
2022/11/22 08:25:12;;;;;;;7.22;2.78;;;;;;;8.61;nan;97957.81;6024041;23;20296;-94
2022/11/22 08:27:49;;;;;;;8.60;2.88;;;;;;;8.66;nan;97964.44;6020845;23;20217;-93
2022/11/22 08:30:44;;;;;;;6.75;2.33;;;;;;;8.71;nan;97967.50;6047564;23;20196;-94
2022/11/22 08:33:11;;;;;;;6.80;2.15;;;;;;;8.76;nan;97970.56;6031349;23;20402;-93
2022/11/22 08:35:57;;;;;;;6.13;1.95;;;;;;;8.82;nan;97967.44;6033030;23;20532;-92
2022/11/22 08:39:03;;;;;;;8.80;2.53;;;;;;;8.90;nan;97967.63;6044265;23;20392;-94
2022/11/22 08:41:51;;;;;;;6.95;2.42;;;;;;;8.98;nan;97969.63;6042692;23;20525;-92
2022/11/22 08:44:29;;;;;;;8.25;3.65;;;;;;;9.08;nan;97966.09;6049313;23;20645;-94
2022/11/22 08:47:08;;;;;;;9.23;4.60;;;;;;;9.14;nan;97956.91;6032500;23;20712;-93
2022/11/22 08:50:01;;;;;;;7.78;3.70;;;;;;;9.17;nan;97947.97;6043527;23;20188;-92
2022/11/22 08:53:10;;;;;;;5.70;2.60;;;;;;;9.24;nan;97951.72;6042401;23;20172;-92
2022/11/22 08:55:41;;;;;;;5.78;2.28;;;;;;;9.28;nan;97940.00;6042236;23;20193;-93
2022/11/22 08:58:48;;;;;;;;;;;;;;;;;;;;;
2022/11/22 09:01:43;;;;;;;7.70;3.40;;;;;;;9.61;nan;97938.09;6048225;23;20179;-92
2022/11/22 09:04:42;;;;;;;;;;;;;;;;;;;;;
2022/11/22 09:07:18;;;;;;;9.80;3.20;;;;;;;10.10;nan;97942.50;6037843;23;20548;-95
2022/11/22 09:10:13;;;;;;;;;;;;;;;;;;;;;
2022/11/22 09:12:52;;;;;;;4.57;2.90;;;;;;;10.55;nan;97942.00;6042481;23;20184;-94
2022/11/22 09:15:36;;;;;;;;;;;;;;;;;;;;;
2022/11/22 09:21:59;;;;;;;10.93;4.18;;;;;;;10.18;nan;97937.41;6047169;23;20192;-94
2022/11/22 09:24:56;;;;;;;10.00;4.22;;;;;;;10.08;nan;97949.69;6079482;23;20287;-93
2022/11/22 09:27:39;;;;;;;7.22;1.90;;;;;;;9.98;nan;97939.16;6070745;23;20184;-92
2022/11/22 09:30:11;;;;;;;6.35;1.50;;;;;;;9.92;nan;97942.31;6079954;23;20622;-93
2022/11/22 09:32:41;;;;;;;5.32;1.38;;;;;;;9.86;nan;97948.13;6048720;23;20207;-93
2022/11/22 09:35:07;;;;;;;3.28;1.80;;;;;;;9.82;nan;97953.75;6077499;23;20405;-93
2022/11/22 09:38:12;;;;;;;;;;;;;;;;;;;;;
2022/11/22 09:41:18;;;;;;;6.85;1.30;;;;;;;9.64;nan;97964.88;6066490;23;20184;-94
2022/11/22 09:44:19;;;;;;;;;;;;;;;;;;;;;
2022/11/22 09:47:25;;;;;;;8.07;2.05;;;;;;;9.52;nan;97950.19;6072550;23;20189;-94
2022/11/22 09:50:15;;;;;;;2.75;1.70;;;;;;;9.50;nan;97957.34;6073728;23;20163;-94
2022/11/22 09:53:26;;;;;;;;;;;;;;;;;;;;;
2022/11/22 09:56:09;;;;;;;5.60;2.25;;;;;;;9.44;nan;97937.75;6013982;23;20187;-93
2022/11/22 09:59:27;;;;;;;3.85;1.70;;;;;;;9.49;nan;97940.81;6075236;23;20185;-94
2022/11/22 10:02:35;;;;;;;4.05;2.00;;;;;;;9.64;nan;97950.91;6074115;23;20169;-94
2022/11/22 10:09:39;;;;;;;2.53;1.42;;;;;;;9.78;nan;97958.44;6072023;23;20718;-94
2022/11/22 10:12:37;;;;;;;7.45;2.38;;;;;;;9.75;nan;97964.78;6071690;23;20216;-91
2022/11/22 10:15:37;;;;;;;3.78;2.30;;;;;;;9.73;nan;97953.59;6073897;23;20229;-93
2022/11/22 10:21:53;;;;;;;2.83;1.25;;;;;;;9.71;nan;97952.06;6038907;23;20657;-93
2022/11/22 10:24:46;;;;;;;;;;;;;;;;;;;;;
2022/11/22 10:27:15;;;;;;;4.25;1.30;;;;;;;9.70;nan;97947.78;6047997;23;20847;-93
2022/11/22 10:29:55;;;;;;;2.65;1.73;;;;;;;9.69;nan;97935.63;6074086;23;20182;-94
2022/11/22 10:32:46;;;;;;;5.10;1.58;;;;;;;9.69;nan;97948.72;6070250;23;20235;-93
2022/11/22 10:35:23;;;;;;;7.18;1.67;;;;;;;9.75;nan;97938.56;6067257;23;20911;-92
2022/11/22 10:38:25;;;;;;;3.10;1.20;;;;;;;9.77;nan;97946.28;6073275;23;20649;-91
2022/11/22 10:41:30;;;;;;;;;;;;;;;;;;;;;
2022/11/22 10:44:01;;;;;;;2.60;0.90;;;;;;;9.81;nan;97949.47;6074906;23;20212;-91
2022/11/22 10:47:02;;;;;;;1.77;1.10;;;;;;;9.81;nan;97960.78;6072703;23;20223;-93
2022/11/22 10:50:16;;;;;;;5.68;1.00;;;;;;;9.81;nan;97958.19;6076983;23;20220;-92
2022/11/22 10:53:18;;;;;;;3.10;0.95;;;;;;;9.84;nan;97962.31;6075784;23;20842;-91
2022/11/22 10:55:54;;;;;;;2.17;1.23;;;;;;;9.87;nan;97956.81;6075649;23;20168;-93
2022/11/22 10:59:06;;;;;;;3.38;1.30;;;;;;;9.94;nan;97963.19;6077615;23;20204;-93
2022/11/22 11:01:53;;;;;;;2.95;1.45;;;;;;;9.94;nan;97948.28;6071854;23;20215;-93
2022/11/22 11:04:32;;;;;;;1.30;1.00;;;;;;;9.98;nan;97948.81;6072553;23;20659;-93
2022/11/22 11:07:22;;;;;;;1.90;1.00;;;;;;;9.99;nan;97947.88;6070676;23;20734;-92
2022/11/22 11:10:37;;;;;;;2.72;2.15;;;;;;;10.04;nan;97943.03;6074428;23;20259;-93
2022/11/22 11:13:19;;;;;;;2.92;1.50;;;;;;;10.05;nan;97938.63;6074621;23;20248;-93
2022/11/22 11:19:17;;;;;;;2.88;2.03;;;;;;;10.17;nan;97955.91;6072425;23;20338;-92
2022/11/22 11:21:45;;;;;;;5.32;2.78;;;;;;;10.22;nan;97937.97;6072286;23;20170;-92
2022/11/22 11:24:40;;;;;;;4.20;2.58;;;;;;;10.27;nan;97941.03;6074595;23;20227;-93
2022/11/22 11:27:34;;;;;;;3.95;2.22;;;;;;;10.33;nan;97943.13;6076532;23;20228;-94
2022/11/22 11:30:14;;;;;;;2.97;1.33;;;;;;;10.38;nan;97934.84;6065900;23;20179;-94
2022/11/22 11:32:55;;;;;;;2.53;1.40;;;;;;;10.41;nan;97935.38;6072270;23;20164;-92
2022/11/22 11:36:01;;;;;;;;;;;;;;;;;;;;;
2022/11/22 11:38:55;;;;;;;;;;;;;;;;;;;;;
2022/11/22 11:42:07;;;;;;;;;;;;;;;;;;;;;
2022/11/22 11:44:36;;;;;;;3.05;1.42;;;;;;;10.50;nan;97932.91;6040380;23;20211;-93
2022/11/22 11:47:33;;;;;;;1.60;1.42;;;;;;;10.46;nan;97931.53;6063705;23;20176;-93
2022/11/22 11:57:58;;;;;;;3.92;2.35;;;;;;;10.36;nan;97923.63;5936202;24;20194;-94
2022/11/22 12:00:49;;;;;;;1.50;1.40;;;;;;;10.36;nan;97921.84;5960176;24;20224;-95
2022/11/22 12:07:46;;;;;;;;;;;;;;;;;;;;;
2022/11/22 12:15:10;;;;;;;3.47;1.00;;;;;;;10.38;nan;97911.22;5898194;23;20177;-94
2022/11/22 12:21:49;;;;;;;;;;;;;;;;;;;;;
2022/11/22 12:28:18;;;;;;;0.88;0.85;;;;;;;10.40;nan;97899.63;6030964;23;20704;-93
2022/11/22 12:35:32;;;;;;;;;;;;;;;;;;;;;
2022/11/22 12:42:23;;;;;;;;;;;;;;;;;;;;;
2022/11/22 12:45:22;;;;;;;2.35;1.35;;;;;;;10.70;nan;97873.34;5849360;24;20228;-93
2022/11/22 13:02:55;;;;;;;;;;;;;;;;;;;;;
2022/11/22 13:20:28;;;;;;;;;;;;;;;;;;;;;
2022/11/22 13:23:40;;;;;;;1.20;0.85;;;;;;;10.87;nan;97850.75;5827078;24;20189;-95
2022/11/22 13:27:05;;;;;;;;;;;;;;;;;;;;;
2022/11/22 13:29:59;;;;;;;4.13;1.00;;;;;;;10.87;nan;97853.38;5898120;24;20390;-94
2022/11/22 13:33:17;;;;;;;1.35;0.75;;;;;;;10.88;nan;97853.22;5929243;24;20187;-94
2022/11/22 13:36:35;;;;;;;;;;;;;;;;;;;;;
2022/11/22 13:43:22;;;;;;;1.33;0.80;;;;;;;10.90;nan;97859.19;5767828;24;20764;-93
2022/11/22 13:46:55;;;;;;;;;;;;;;;;;;;;;
2022/11/22 13:53:44;;;;;;;;;;;;;;;;;;;;;
2022/11/22 13:56:37;;;;;;;2.05;1.35;;;;;;;10.84;nan;97867.63;5759109;24;20178;-92
2022/11/22 13:59:42;;;;;;;;;;;;;;;;;;;;;
2022/11/22 14:02:58;;;;;;;1.83;1.10;;;;;;;10.70;nan;97881.22;5848858;24;20185;-93
2022/11/22 14:06:51;;;;;;;;;;;;;;;;;;;;;
2022/11/22 14:20:28;;;;;;;;;;;;;;;;;;;;;
2022/11/22 14:24:55;;;;;;;;;;;;;;;;;;;;;
2022/11/22 14:27:43;;;;;;;2.45;1.20;;;;;;;10.29;nan;97886.63;6020490;23;20198;-94
2022/11/22 14:34:36;;;;;;;1.73;1.08;;;;;;;10.23;nan;97896.81;5964416;24;20187;-93
2022/11/22 14:37:30;;;;;;;;;;;;;;;;;;;;;
2022/11/22 14:40:42;;;;;;;3.63;1.00;;;;;;;10.18;nan;97895.44;6111502;23;20270;-93
2022/11/22 14:44:04;;;;;;;;;;;;;;;;;;;;;
2022/11/22 14:47:51;;;;;;;;;;;;;;;;;;;;;
2022/11/22 14:50:41;;;;;;;2.05;0.80;;;;;;;10.20;nan;97895.28;5850595;24;20782;-93
2022/11/22 15:00:47;;;;;;;;;;;;;;;;;;;;;
2022/11/22 15:07:34;;;;;;;2.83;1.30;;;;;;;10.17;nan;97916.53;5992878;23;20257;-94
2022/11/22 15:10:59;;;;;;;2.92;1.63;;;;;;;10.16;nan;97930.66;6070283;23;20331;-94
2022/11/22 15:13:59;;;;;;;;;;;;;;;;;;;;;
2022/11/22 15:16:38;;;;;;;3.97;2.30;;;;;;;10.19;nan;97933.00;6114265;23;20247;-94
2022/11/22 15:19:44;;;;;;;4.25;2.00;;;;;;;10.18;nan;97942.66;6085884;23;20955;-94
